createdAt,value
2022-10-17T00:01:05.527Z,67.20
2022-10-17T00:03:33.618Z,64.78
2022-10-17T00:06:10.876Z,65.75
2022-10-17T00:08:40.870Z,65.78
2022-10-17T00:11:14.591Z,66.57
2022-10-17T00:13:41.772Z,66.75
2022-10-17T00:16:09.166Z,63.55
2022-10-17T00:18:36.270Z,64.57
2022-10-17T00:21:03.626Z,62.75
2022-10-17T00:23:31.893Z,61.83
2022-10-17T00:26:04.156Z,64.57
2022-10-17T00:28:33.235Z,63.10
2022-10-17T00:31:02.448Z,63.88
2022-10-17T00:33:32.092Z,63.17
2022-10-17T00:36:07.773Z,62.22
2022-10-17T00:41:02.796Z,66.57
2022-10-17T00:43:30.006Z,65.25
2022-10-17T00:45:59.401Z,63.38
2022-10-17T00:48:26.561Z,63.92
2022-10-17T00:50:56.465Z,64.03
2022-10-17T00:53:23.691Z,65.70
2022-10-17T00:55:54.220Z,63.60
2022-10-17T00:58:21.590Z,63.55
2022-10-17T01:00:48.851Z,65.00
2022-10-17T01:03:16.466Z,64.80
2022-10-17T01:05:43.756Z,68.88
2022-10-17T01:08:12.002Z,64.25
2022-10-17T01:11:04.321Z,68.60
2022-10-17T01:13:52.126Z,64.18
2022-10-17T01:16:52.362Z,67.95
2022-10-17T01:19:52.435Z,65.35
2022-10-17T01:22:33.002Z,68.88
2022-10-17T01:25:17.047Z,67.82
2022-10-17T01:28:01.636Z,64.95
2022-10-17T01:30:59.826Z,68.07
2022-10-17T01:33:47.728Z,67.10
2022-10-17T01:36:32.816Z,67.25
2022-10-17T01:39:24.986Z,66.53
2022-10-17T01:42:15.861Z,67.93
2022-10-17T01:45:07.686Z,68.45
2022-10-17T01:47:35.373Z,64.03
2022-10-17T01:50:07.841Z,67.07
2022-10-17T01:52:44.316Z,66.20
2022-10-17T01:55:23.461Z,66.10
2022-10-17T01:57:58.026Z,64.95
2022-10-17T02:00:27.964Z,63.00
2022-10-17T02:03:02.725Z,67.53
2022-10-17T02:05:35.536Z,66.97
2022-10-17T02:08:02.727Z,65.05
2022-10-17T02:10:37.046Z,70.40
2022-10-17T02:13:41.538Z,64.95
2022-10-17T02:16:19.866Z,64.78
2022-10-17T02:19:09.126Z,67.25
2022-10-17T02:21:52.471Z,63.30
2022-10-17T02:24:36.218Z,65.88
2022-10-17T02:27:15.306Z,66.30
2022-10-17T02:29:54.562Z,65.45
2022-10-17T02:32:34.877Z,66.28
2022-10-17T02:35:04.886Z,66.57
2022-10-17T02:37:32.701Z,68.43
2022-10-17T02:40:02.120Z,70.43
2022-10-17T02:42:31.235Z,67.32
2022-10-17T02:45:01.443Z,69.50
2022-10-17T02:47:38.046Z,68.57
2022-10-17T02:50:05.660Z,69.40
2022-10-17T02:52:35.472Z,68.20
2022-10-17T02:55:19.581Z,66.35
2022-10-17T02:57:56.203Z,72.45
2022-10-17T03:00:25.243Z,68.40
2022-10-17T03:02:53.975Z,67.35
2022-10-17T03:05:27.182Z,67.18
2022-10-17T03:07:54.986Z,72.75
2022-10-17T03:10:23.155Z,66.93
2022-10-17T03:12:50.225Z,74.20
2022-10-17T03:15:17.350Z,65.85
2022-10-17T03:20:11.611Z,70.35
2022-10-17T03:22:38.701Z,69.60
2022-10-17T03:25:05.981Z,66.78
2022-10-17T03:27:33.253Z,71.75
2022-10-17T03:30:00.395Z,71.75
2022-10-17T03:32:27.405Z,75.00
2022-10-17T03:34:54.457Z,70.35
2022-10-17T03:37:21.595Z,69.57
2022-10-17T03:39:48.607Z,69.32
2022-10-17T03:42:15.742Z,72.57
2022-10-17T03:44:42.947Z,68.20
2022-10-17T03:47:13.343Z,65.97
2022-10-17T03:49:41.708Z,73.55
2022-10-17T03:52:14.906Z,70.47
2022-10-17T03:54:42.106Z,67.78
2022-10-17T03:57:09.154Z,69.05
2022-10-17T03:59:36.215Z,70.38
2022-10-17T04:02:03.261Z,69.28
2022-10-17T04:04:30.316Z,70.25
2022-10-17T04:06:57.406Z,70.60
2022-10-17T04:09:24.502Z,69.82
2022-10-17T04:11:51.606Z,69.97
2022-10-17T04:14:18.771Z,65.38
2022-10-17T04:16:45.892Z,62.17
2022-10-17T04:19:14.341Z,64.50
2022-10-17T04:21:41.728Z,67.22
2022-10-17T04:24:11.899Z,64.05
2022-10-17T04:26:38.902Z,67.82
2022-10-17T04:29:05.961Z,66.15
2022-10-17T04:31:33.011Z,63.22
2022-10-17T04:34:00.036Z,61.15
2022-10-17T04:36:27.123Z,62.92
2022-10-17T04:38:57.407Z,61.05
2022-10-17T04:41:24.450Z,69.15
2022-10-17T04:43:51.621Z,65.63
2022-10-17T04:46:18.899Z,66.97
2022-10-17T04:48:46.096Z,59.65
2022-10-17T04:51:20.702Z,55.92
2022-10-17T04:53:50.453Z,60.85
2022-10-17T04:56:20.627Z,61.90
2022-10-17T04:58:48.081Z,62.42
2022-10-17T05:01:17.904Z,61.83
2022-10-17T05:03:45.276Z,63.08
2022-10-17T05:06:24.072Z,67.53
2022-10-17T05:08:51.486Z,62.83
2022-10-17T05:11:24.647Z,64.18
2022-10-17T05:13:57.326Z,66.45
2022-10-17T05:16:25.406Z,63.45
2022-10-17T05:18:55.063Z,66.13
2022-10-17T05:21:24.237Z,66.25
2022-10-17T05:23:51.891Z,63.67
2022-10-17T05:26:19.356Z,67.38
2022-10-17T05:28:46.585Z,69.88
2022-10-17T05:31:13.931Z,68.70
2022-10-17T05:33:41.440Z,68.82
2022-10-17T05:36:08.886Z,69.28
2022-10-17T05:38:36.462Z,69.78
2022-10-17T05:41:05.566Z,68.65
2022-10-17T05:43:33.862Z,69.85
2022-10-17T05:46:05.161Z,70.90
2022-10-17T05:48:32.275Z,71.07
2022-10-17T05:51:01.186Z,68.20
2022-10-17T05:53:32.336Z,73.20
2022-10-17T05:56:03.103Z,98.60
2022-10-17T05:58:49.272Z,124.18
2022-10-17T06:01:17.566Z,81.78
2022-10-17T06:03:44.617Z,73.03
2022-10-17T06:06:13.556Z,74.00
2022-10-17T06:08:40.781Z,66.85
2022-10-17T06:11:10.168Z,72.00
2022-10-17T06:13:38.518Z,72.47
2022-10-17T06:16:06.827Z,66.85
2022-10-17T06:18:34.451Z,71.03
2022-10-17T06:21:15.737Z,66.65
2022-10-17T06:23:42.811Z,68.35
2022-10-17T06:26:10.088Z,71.35
2022-10-17T06:28:37.609Z,73.20
2022-10-17T06:31:08.983Z,81.47
2022-10-17T06:33:36.988Z,70.68
2022-10-17T06:36:05.732Z,69.78
2022-10-17T06:38:34.347Z,67.78
2022-10-17T06:41:14.312Z,65.43
2022-10-17T06:43:43.525Z,59.88
2022-10-17T06:46:10.699Z,55.70
2022-10-17T06:48:37.746Z,47.58
2022-10-17T06:51:06.337Z,45.42
2022-10-17T06:53:35.401Z,44.05
2022-10-17T06:56:04.493Z,47.25
2022-10-17T06:58:33.732Z,45.25
2022-10-17T07:01:05.722Z,47.33
2022-10-17T07:03:33.064Z,45.13
2022-10-17T07:06:00.196Z,48.83
2022-10-17T07:08:27.786Z,52.25
2022-10-17T07:10:55.086Z,50.25
2022-10-17T07:13:22.487Z,50.67
2022-10-17T07:15:49.621Z,50.10
2022-10-17T07:18:16.828Z,52.42
2022-10-17T07:20:43.906Z,61.63
2022-10-17T07:23:11.266Z,54.20
2022-10-17T07:25:40.169Z,52.13
2022-10-17T07:28:07.556Z,53.10
2022-10-17T07:30:34.865Z,59.10
2022-10-17T07:33:04.896Z,61.67
2022-10-17T07:35:32.246Z,63.78
2022-10-17T07:37:59.327Z,65.38
2022-10-17T07:40:26.401Z,70.22
2022-10-17T07:42:53.616Z,60.58
2022-10-17T07:45:23.791Z,58.30
2022-10-17T07:47:50.998Z,55.65
2022-10-17T07:50:18.131Z,74.50
2022-10-17T07:52:49.371Z,57.08
2022-10-17T07:55:16.587Z,57.53
2022-10-17T07:57:43.696Z,68.65
2022-10-17T08:00:11.316Z,76.90
2022-10-17T08:02:38.437Z,79.38
2022-10-17T08:05:08.196Z,73.88
2022-10-17T08:07:35.279Z,76.38
2022-10-17T08:10:04.805Z,74.00
2022-10-17T08:12:34.427Z,71.55
2022-10-17T08:15:02.000Z,78.75
2022-10-17T08:17:29.026Z,75.35
2022-10-17T08:19:56.142Z,78.05
2022-10-17T08:22:23.355Z,74.63
2022-10-17T08:24:50.386Z,75.97
2022-10-17T08:27:23.756Z,75.75
2022-10-17T08:29:53.594Z,75.72
2022-10-17T08:32:26.647Z,77.82
2022-10-17T08:34:55.646Z,77.30
2022-10-17T08:37:23.543Z,76.15
2022-10-17T08:39:50.706Z,77.68
2022-10-17T08:42:45.886Z,73.53
2022-10-17T08:45:29.846Z,72.05
2022-10-17T08:48:12.751Z,75.70
2022-10-17T08:50:45.386Z,75.97
2022-10-17T08:53:21.120Z,79.93
2022-10-17T08:55:50.226Z,76.18
2022-10-17T08:58:26.377Z,78.00
2022-10-17T09:01:14.461Z,71.55
2022-10-17T09:04:12.266Z,69.55
2022-10-17T09:06:54.578Z,72.13
2022-10-17T09:09:35.166Z,76.97
2022-10-17T09:12:11.362Z,74.00
2022-10-17T09:14:52.436Z,75.25
2022-10-17T09:17:45.347Z,68.13
2022-10-17T09:20:18.527Z,68.85
2022-10-17T09:23:01.358Z,74.55
2022-10-17T09:25:29.486Z,74.28
2022-10-17T09:28:04.712Z,66.40
2022-10-17T09:30:45.555Z,73.55
2022-10-17T09:33:34.266Z,75.78
2022-10-17T09:36:15.147Z,66.78
2022-10-17T09:38:53.245Z,71.00
2022-10-17T09:41:46.613Z,72.45
2022-10-17T09:44:22.086Z,71.85
2022-10-17T09:47:13.055Z,56.97
2022-10-17T09:49:46.235Z,68.15
2022-10-17T09:52:18.569Z,72.03
2022-10-17T09:55:11.888Z,70.97
2022-10-17T09:58:02.783Z,72.15
2022-10-17T10:00:36.149Z,70.15
2022-10-17T10:03:26.295Z,68.32
2022-10-17T10:06:17.900Z,69.22
2022-10-17T10:09:03.561Z,71.30
2022-10-17T10:11:55.717Z,72.05
2022-10-17T10:14:33.627Z,68.53
2022-10-17T10:17:02.546Z,69.75
2022-10-17T10:19:38.011Z,70.60
2022-10-17T10:25:20.387Z,62.63
2022-10-17T10:27:47.894Z,63.38
2022-10-17T10:30:25.737Z,63.63
2022-10-17T10:33:00.676Z,62.40
2022-10-17T10:35:36.517Z,62.10
2022-10-17T10:38:13.346Z,64.57
2022-10-17T10:41:12.205Z,62.88
2022-10-17T10:43:48.427Z,61.15
2022-10-17T10:46:27.438Z,64.47
2022-10-17T10:49:00.708Z,64.20
2022-10-17T10:51:49.140Z,66.53
2022-10-17T10:54:41.113Z,66.32
2022-10-17T10:57:20.073Z,63.83
2022-10-17T11:00:00.627Z,63.83
2022-10-17T11:02:53.085Z,61.38
2022-10-17T11:05:42.913Z,65.28
2022-10-17T11:08:28.307Z,61.45
2022-10-17T11:11:25.102Z,57.00
2022-10-17T11:14:13.857Z,65.57
2022-10-17T11:16:49.977Z,60.83
2022-10-17T11:19:41.657Z,61.78
2022-10-17T11:22:29.334Z,55.20
2022-10-17T11:25:14.766Z,57.50
2022-10-17T11:27:41.876Z,56.63
2022-10-17T11:30:15.150Z,55.72
2022-10-17T11:33:11.997Z,63.92
2022-10-17T11:35:43.215Z,54.00
2022-10-17T11:38:34.606Z,62.00
2022-10-17T11:41:03.266Z,62.75
2022-10-17T11:43:45.047Z,63.17
2022-10-17T11:46:21.901Z,58.22
2022-10-17T11:49:02.656Z,62.42
2022-10-17T11:54:38.449Z,60.78
2022-10-17T11:57:35.977Z,54.85
2022-10-17T12:00:49.916Z,55.92
2022-10-17T12:03:46.636Z,57.70
2022-10-17T12:06:45.227Z,57.88
2022-10-17T12:09:48.731Z,52.50
2022-10-17T12:12:27.707Z,56.58
2022-10-17T12:15:24.266Z,57.72
2022-10-17T12:18:03.267Z,55.03
2022-10-17T12:20:34.898Z,51.40
2022-10-17T12:23:10.793Z,51.75
2022-10-17T12:25:59.764Z,55.38
2022-10-17T12:28:41.230Z,54.13
2022-10-17T12:31:16.089Z,46.33
2022-10-17T12:33:54.589Z,54.10
2022-10-17T12:36:28.996Z,58.03
2022-10-17T12:39:02.013Z,58.53
2022-10-17T12:41:42.321Z,54.28
2022-10-17T12:44:15.543Z,63.05
2022-10-17T12:47:02.231Z,58.00
2022-10-17T12:49:54.538Z,55.88
2022-10-17T12:52:32.916Z,48.53
2022-10-17T12:55:13.779Z,58.67
2022-10-17T12:58:11.755Z,53.35
2022-10-17T13:01:11.581Z,53.20
2022-10-17T13:03:44.619Z,48.88
2022-10-17T13:06:19.806Z,46.05
2022-10-17T13:08:56.107Z,48.08
2022-10-17T13:11:30.148Z,50.60
2022-10-17T13:14:00.637Z,50.63
2022-10-17T13:16:42.036Z,50.83
2022-10-17T13:19:17.236Z,50.40
2022-10-17T13:22:06.505Z,51.83
2022-10-17T13:24:39.248Z,52.33
2022-10-17T13:27:23.748Z,227.38
2022-10-17T13:29:53.461Z,58.05
2022-10-17T13:32:20.557Z,54.20
2022-10-17T13:35:04.446Z,52.38
2022-10-17T13:37:31.547Z,52.47
2022-10-17T13:40:06.968Z,51.10
2022-10-17T13:42:45.242Z,52.95
2022-10-17T13:45:24.836Z,52.97
2022-10-17T13:47:52.096Z,51.70
2022-10-17T13:50:44.656Z,61.03
2022-10-17T13:53:47.647Z,53.13
2022-10-17T13:56:28.472Z,46.78
2022-10-17T13:58:59.863Z,51.75
2022-10-17T14:01:29.318Z,42.75
2022-10-17T14:04:08.305Z,55.33
2022-10-17T14:06:47.995Z,52.33
2022-10-17T14:09:30.166Z,51.08
2022-10-17T14:12:19.246Z,49.47
2022-10-17T14:17:40.837Z,46.38
2022-10-17T14:20:48.255Z,51.13
2022-10-17T14:25:50.092Z,55.90
2022-10-17T14:28:18.590Z,56.67
2022-10-17T14:30:57.421Z,44.53
2022-10-17T14:33:31.303Z,52.15
2022-10-17T14:36:00.876Z,54.42
2022-10-17T14:38:31.745Z,55.10
2022-10-17T14:41:44.300Z,50.05
2022-10-17T14:44:35.528Z,52.75
2022-10-17T14:47:30.713Z,52.25
2022-10-17T14:50:06.317Z,51.92
2022-10-17T14:52:34.097Z,54.08
2022-10-17T14:55:24.531Z,50.55
2022-10-17T14:57:51.765Z,49.95
2022-10-17T15:00:23.926Z,49.97
2022-10-17T15:02:52.662Z,53.08
2022-10-17T15:05:20.582Z,53.33
2022-10-17T15:07:49.996Z,55.45
2022-10-17T15:10:34.456Z,57.55
2022-10-17T15:15:53.125Z,52.13
2022-10-17T15:18:20.236Z,53.28
2022-10-17T15:20:50.087Z,55.80
2022-10-17T15:23:23.401Z,51.05
2022-10-17T15:25:52.666Z,47.97
2022-10-17T15:28:20.311Z,54.13
2022-10-17T15:30:47.376Z,50.58
2022-10-17T15:33:16.728Z,47.00
2022-10-17T15:35:43.786Z,50.42
2022-10-17T15:38:16.131Z,48.75
2022-10-17T15:40:43.151Z,46.80
2022-10-17T15:43:10.266Z,49.63
2022-10-17T15:45:39.836Z,49.92
2022-10-17T15:48:08.445Z,51.25
2022-10-17T15:50:35.510Z,45.60
2022-10-17T15:53:03.925Z,49.53
2022-10-17T15:55:32.007Z,47.97
2022-10-17T15:57:59.165Z,45.53
2022-10-17T16:00:26.298Z,30.20
2022-10-17T16:02:57.096Z,31.75
2022-10-17T16:05:28.113Z,46.10
2022-10-17T16:07:55.950Z,45.38
2022-10-17T16:10:23.629Z,43.90
2022-10-17T16:12:50.857Z,48.75
2022-10-17T16:15:23.451Z,44.88
2022-10-17T16:17:51.474Z,45.28
2022-10-17T16:20:19.767Z,50.08
2022-10-17T16:22:47.751Z,48.38
2022-10-17T16:25:27.980Z,43.35
2022-10-17T16:27:57.176Z,41.10
2022-10-17T16:30:27.380Z,45.42
2022-10-17T16:32:55.700Z,46.35
2022-10-17T16:35:31.921Z,48.13
2022-10-17T16:38:03.157Z,47.58
2022-10-17T16:40:30.216Z,49.80
2022-10-17T16:42:57.285Z,48.10
2022-10-17T16:45:26.950Z,53.72
2022-10-17T16:47:55.626Z,48.67
2022-10-17T16:50:23.041Z,48.10
2022-10-17T16:52:50.300Z,49.50
2022-10-17T16:55:19.175Z,45.00
2022-10-17T16:57:48.945Z,49.35
2022-10-17T17:00:17.820Z,45.90
2022-10-17T17:02:48.632Z,55.85
2022-10-17T17:05:16.058Z,45.13
2022-10-17T17:07:43.107Z,47.05
2022-10-17T17:10:10.366Z,48.92
2022-10-17T17:12:37.656Z,52.08
2022-10-17T17:15:05.706Z,47.22
2022-10-17T17:17:52.419Z,48.15
2022-10-17T17:20:21.568Z,48.60
2022-10-17T17:22:55.945Z,44.80
2022-10-17T17:25:23.435Z,53.60
2022-10-17T17:27:53.210Z,51.97
2022-10-17T17:30:20.376Z,46.83
2022-10-17T17:32:47.575Z,51.63
2022-10-17T17:35:14.606Z,49.10
2022-10-17T17:37:41.625Z,54.90
2022-10-17T17:40:09.107Z,49.08
2022-10-17T17:42:36.105Z,53.00
2022-10-17T17:45:03.616Z,57.65
2022-10-17T17:47:30.888Z,52.50
2022-10-17T17:49:58.016Z,50.40
2022-10-17T17:52:27.572Z,54.42
2022-10-17T17:54:54.706Z,54.28
2022-10-17T17:57:22.087Z,54.28
2022-10-17T17:59:50.351Z,55.03
2022-10-17T18:02:17.822Z,55.15
2022-10-17T18:04:44.926Z,58.97
2022-10-17T18:07:17.602Z,60.08
2022-10-17T18:09:44.788Z,55.50
2022-10-17T18:12:13.749Z,54.45
2022-10-17T18:14:40.873Z,53.38
2022-10-17T18:17:10.541Z,52.67
2022-10-17T18:19:37.753Z,52.90
2022-10-17T18:22:04.806Z,51.92
2022-10-17T18:24:31.826Z,54.60
2022-10-17T18:27:00.017Z,54.38
2022-10-17T18:29:29.574Z,54.60
2022-10-17T18:31:56.697Z,58.63
2022-10-17T18:34:29.576Z,60.78
2022-10-17T18:36:56.744Z,59.63
2022-10-17T18:39:23.837Z,58.72
2022-10-17T18:41:50.970Z,57.05
2022-10-17T18:44:21.098Z,59.13
2022-10-17T18:46:51.248Z,59.03
2022-10-17T18:49:19.631Z,57.05
2022-10-17T18:51:47.237Z,57.05
2022-10-17T18:54:21.937Z,53.75
2022-10-17T18:56:55.476Z,59.27
2022-10-17T18:59:22.842Z,62.70
2022-10-17T19:01:50.143Z,43.80
2022-10-17T19:04:17.261Z,47.33
2022-10-17T19:06:44.577Z,38.22
2022-10-17T19:09:13.201Z,36.45
2022-10-17T19:11:42.176Z,37.60
2022-10-17T19:14:15.547Z,37.97
2022-10-17T19:16:50.984Z,37.33
2022-10-17T19:19:23.458Z,34.35
2022-10-17T19:21:51.312Z,47.30
2022-10-17T19:24:21.228Z,47.78
2022-10-17T19:26:50.506Z,44.25
2022-10-17T19:29:21.269Z,44.70
2022-10-17T19:31:51.362Z,40.80
2022-10-17T19:34:18.951Z,38.40
2022-10-17T19:36:46.438Z,42.20
2022-10-17T19:39:19.299Z,38.25
2022-10-17T19:41:50.226Z,38.70
2022-10-17T19:44:17.719Z,33.65
2022-10-17T19:46:47.116Z,29.80
2022-10-17T19:49:14.778Z,33.03
2022-10-17T19:51:42.181Z,37.65
2022-10-17T19:54:10.968Z,34.47
2022-10-17T19:56:39.420Z,32.15
2022-10-17T19:59:07.326Z,36.10
2022-10-17T20:01:36.534Z,34.78
2022-10-17T20:04:10.426Z,37.33
2022-10-17T20:06:40.526Z,39.92
2022-10-17T20:09:13.946Z,34.58
2022-10-17T20:11:46.127Z,33.75
2022-10-17T20:14:13.336Z,34.80
2022-10-17T20:16:40.436Z,35.45
2022-10-17T20:19:13.029Z,41.95
2022-10-17T20:21:40.432Z,36.13
2022-10-17T20:24:11.219Z,36.80
2022-10-17T20:26:39.967Z,39.17
2022-10-17T20:29:12.018Z,39.92
2022-10-17T20:31:49.369Z,41.15
2022-10-17T20:34:20.528Z,36.33
2022-10-17T20:36:49.987Z,35.10
2022-10-17T20:39:18.858Z,39.53
2022-10-17T20:41:48.687Z,43.38
2022-10-17T20:44:15.937Z,39.80
2022-10-17T20:47:00.674Z,35.53
2022-10-17T20:49:28.932Z,33.10
2022-10-17T20:52:04.766Z,38.42
2022-10-17T20:54:31.899Z,38.08
2022-10-17T20:57:02.445Z,36.70
2022-10-17T20:59:32.771Z,36.75
2022-10-17T21:02:00.957Z,36.35
2022-10-17T21:04:46.715Z,34.53
2022-10-17T21:07:14.696Z,37.33
2022-10-17T21:09:41.876Z,33.80
2022-10-17T21:12:08.982Z,36.17
2022-10-17T21:14:43.756Z,36.22
2022-10-17T21:17:10.852Z,38.03
2022-10-17T21:19:37.957Z,39.05
2022-10-17T21:22:05.047Z,39.17
2022-10-17T21:24:35.526Z,38.05
2022-10-17T21:27:02.616Z,38.03
2022-10-17T21:29:29.776Z,37.75
2022-10-17T21:31:56.904Z,42.00
2022-10-17T21:34:25.213Z,41.42
2022-10-17T21:36:53.467Z,42.47
2022-10-17T21:39:21.938Z,45.50
2022-10-17T21:41:49.158Z,41.92
2022-10-17T21:44:21.065Z,45.40
2022-10-17T21:46:48.885Z,41.65
2022-10-17T21:49:18.457Z,43.63
2022-10-17T21:51:47.601Z,41.20
2022-10-17T21:54:16.136Z,45.88
2022-10-17T21:56:45.646Z,44.20
2022-10-17T21:59:14.199Z,43.55
2022-10-17T22:01:45.650Z,44.10
2022-10-17T22:04:15.726Z,44.03
2022-10-17T22:06:44.705Z,38.20
2022-10-17T22:09:18.987Z,40.78
2022-10-17T22:11:48.527Z,40.25
2022-10-17T22:14:18.335Z,43.55
2022-10-17T22:16:47.008Z,37.15
2022-10-17T22:19:16.795Z,41.70
2022-10-17T22:21:44.976Z,39.58
2022-10-17T22:24:14.993Z,43.80
2022-10-17T22:26:44.791Z,42.83
2022-10-17T22:29:12.526Z,40.47
2022-10-17T22:31:41.727Z,39.70
2022-10-17T22:34:10.626Z,39.25
2022-10-17T22:36:37.847Z,43.63
2022-10-17T22:39:08.115Z,39.20
2022-10-17T22:41:35.149Z,40.78
2022-10-17T22:44:04.750Z,45.80
2022-10-17T22:46:31.971Z,40.47
2022-10-17T22:48:59.086Z,42.08
2022-10-17T22:51:26.211Z,40.03
2022-10-17T22:53:53.236Z,44.05
2022-10-17T22:56:22.016Z,38.50
2022-10-17T22:58:49.248Z,33.85
2022-10-17T23:01:22.211Z,33.30
2022-10-17T23:03:49.906Z,33.13
2022-10-17T23:06:17.208Z,28.38
2022-10-17T23:08:47.052Z,36.53
2022-10-17T23:11:14.357Z,39.97
2022-10-17T23:13:41.485Z,29.42
2022-10-17T23:16:09.336Z,38.00
2022-10-17T23:18:38.017Z,36.83
2022-10-17T23:21:05.766Z,32.92
2022-10-17T23:23:36.267Z,29.90
2022-10-17T23:26:07.847Z,35.65
2022-10-17T23:28:35.828Z,36.38
2022-10-17T23:31:19.397Z,31.52
2022-10-17T23:33:49.876Z,31.27
2022-10-17T23:36:19.272Z,34.65
2022-10-17T23:38:51.739Z,30.05
2022-10-17T23:41:20.916Z,29.30
2022-10-17T23:43:49.629Z,31.40
2022-10-17T23:46:16.895Z,32.05
2022-10-17T23:48:46.328Z,31.40
2022-10-17T23:51:13.567Z,32.17
2022-10-17T23:53:41.107Z,35.35
2022-10-17T23:56:12.210Z,34.50
2022-10-17T23:58:42.616Z,30.73
